NOZ602 ENGM-ENBR
Flight info
| Callsign | NOZ602 |
|---|---|
| Flight time | 0h 36m |
| Altitude | 30000 |
| Route | ATLAP DCT AGEKU DCT PESUR |
| Aircraft | B738/M-SDE2E3FGHIRWXY/LB1 |
Departure
| Time | 2026-05-07 18:30 |
|---|---|
| Airport | Oslo-Gardermoen International Airport (ENGM) |
Arrival
| Time | 2026-05-07 19:07 |
|---|---|
| Airport | Bergen Airport, Flesland (ENBR) |
| Time | Latitude | Longitude | Altitude | Speed | Heading |
|---|---|---|---|---|---|
| 2026-05-07 17:27 | 60.19647 | 11.09941 | 687 ft | 0 kts | 106° |
| 2026-05-07 17:34 | 60.19515 | 11.09798 | 687 ft | 0 kts | 173° |
| 2026-05-07 18:19 | 60.19531 | 11.09794 | 687 ft | 2 kts | 173° |
| 2026-05-07 18:20 | 60.19546 | 11.09790 | 688 ft | 2 kts | 173° |
| 2026-05-07 18:20 | 60.19561 | 11.09787 | 687 ft | 2 kts | 173° |
| 2026-05-07 18:20 | 60.19576 | 11.09783 | 687 ft | 2 kts | 173° |
| 2026-05-07 18:20 | 60.19591 | 11.09780 | 687 ft | 2 kts | 173° |
| 2026-05-07 18:21 | 60.19605 | 11.09776 | 687 ft | 1 kts | 173° |
| 2026-05-07 18:21 | 60.19607 | 11.09776 | 687 ft | 0 kts | 173° |
| 2026-05-07 18:22 | 60.19606 | 11.09776 | 687 ft | 0 kts | 175° |
| 2026-05-07 18:23 | 60.19602 | 11.09772 | 687 ft | 0 kts | 211° |
| 2026-05-07 18:23 | 60.19596 | 11.09732 | 687 ft | 3 kts | 263° |
| 2026-05-07 18:23 | 60.19601 | 11.09691 | 687 ft | 3 kts | 299° |
| 2026-05-07 18:23 | 60.19613 | 11.09653 | 687 ft | 3 kts | 302° |
| 2026-05-07 18:24 | 60.19633 | 11.09589 | 687 ft | 6 kts | 301° |
| 2026-05-07 18:24 | 60.19653 | 11.09518 | 687 ft | 6 kts | 296° |
| 2026-05-07 18:24 | 60.19677 | 11.09382 | 687 ft | 13 kts | 284° |
| 2026-05-07 18:24 | 60.19706 | 11.09176 | 687 ft | 17 kts | 287° |
| 2026-05-07 18:25 | 60.19742 | 11.08948 | 687 ft | 16 kts | 287° |
| 2026-05-07 18:25 | 60.19767 | 11.08738 | 687 ft | 13 kts | 261° |
| 2026-05-07 18:25 | 60.19702 | 11.08642 | 687 ft | 12 kts | 197° |
| 2026-05-07 18:25 | 60.19623 | 11.08593 | 686 ft | 11 kts | 197° |
| 2026-05-07 18:26 | 60.19553 | 11.08537 | 686 ft | 9 kts | 226° |
| 2026-05-07 18:26 | 60.19561 | 11.08421 | 683 ft | 11 kts | 329° |
| 2026-05-07 18:26 | 60.19639 | 11.08441 | 682 ft | 11 kts | 15° |
| 2026-05-07 18:26 | 60.19705 | 11.08476 | 684 ft | 8 kts | 14° |
| 2026-05-07 18:27 | 60.19773 | 11.08514 | 684 ft | 10 kts | 17° |
| 2026-05-07 18:27 | 60.19841 | 11.08552 | 685 ft | 9 kts | 15° |
| 2026-05-07 18:27 | 60.19896 | 11.08585 | 687 ft | 8 kts | 17° |
| 2026-05-07 18:27 | 60.19978 | 11.08634 | 687 ft | 15 kts | 17° |
| 2026-05-07 18:28 | 60.20094 | 11.08702 | 687 ft | 18 kts | 15° |
| 2026-05-07 18:28 | 60.20219 | 11.08773 | 686 ft | 19 kts | 15° |
| 2026-05-07 18:28 | 60.20354 | 11.08854 | 684 ft | 21 kts | 16° |
| 2026-05-07 18:28 | 60.20492 | 11.08931 | 684 ft | 20 kts | 15° |
| 2026-05-07 18:29 | 60.20619 | 11.09003 | 684 ft | 16 kts | 7° |
| 2026-05-07 18:29 | 60.20680 | 11.08857 | 684 ft | 14 kts | 283° |
| 2026-05-07 18:29 | 60.20691 | 11.08681 | 684 ft | 11 kts | 253° |
| 2026-05-07 18:29 | 60.20605 | 11.08585 | 684 ft | 19 kts | 195° |
| 2026-05-07 18:30 | 60.20306 | 11.08418 | 685 ft | 76 kts | 197° |
| 2026-05-07 18:30 | 60.19607 | 11.08009 | 677 ft | 132 kts | 196° |
| 2026-05-07 18:30 | 60.18591 | 11.07426 | 861 ft | 160 kts | 194° |
| 2026-05-07 18:30 | 60.17551 | 11.06838 | 1455 ft | 159 kts | 197° |
| 2026-05-07 18:31 | 60.16551 | 11.05746 | 1905 ft | 173 kts | 221° |
| 2026-05-07 18:31 | 60.15898 | 11.03688 | 2429 ft | 181 kts | 248° |
| 2026-05-07 18:31 | 60.15445 | 11.01287 | 2992 ft | 193 kts | 246° |
| 2026-05-07 18:31 | 60.14895 | 10.98745 | 3510 ft | 209 kts | 245° |
| 2026-05-07 18:32 | 60.14290 | 10.95998 | 4079 ft | 224 kts | 248° |
| 2026-05-07 18:32 | 60.13670 | 10.93035 | 4646 ft | 240 kts | 237° |
| 2026-05-07 18:32 | 60.12729 | 10.90190 | 5277 ft | 255 kts | 244° |
| 2026-05-07 18:32 | 60.12394 | 10.86665 | 5907 ft | 269 kts | 275° |
| 2026-05-07 18:33 | 60.12863 | 10.83065 | 6857 ft | 270 kts | 288° |
| 2026-05-07 18:33 | 60.13375 | 10.79483 | 7763 ft | 271 kts | 282° |
| 2026-05-07 18:33 | 60.13651 | 10.75780 | 8709 ft | 272 kts | 275° |
| 2026-05-07 18:33 | 60.13765 | 10.72012 | 9594 ft | 274 kts | 272° |
| 2026-05-07 18:34 | 60.13874 | 10.68208 | 10452 ft | 278 kts | 274° |
| 2026-05-07 18:34 | 60.14017 | 10.64275 | 10964 ft | 292 kts | 274° |
| 2026-05-07 18:34 | 60.14173 | 10.60139 | 11504 ft | 306 kts | 274° |
| 2026-05-07 18:34 | 60.14328 | 10.55814 | 12024 ft | 318 kts | 274° |
| 2026-05-07 18:35 | 60.14484 | 10.51300 | 12482 ft | 333 kts | 274° |
| 2026-05-07 18:35 | 60.14641 | 10.46649 | 13260 ft | 337 kts | 274° |
| 2026-05-07 18:35 | 60.14796 | 10.41980 | 14063 ft | 339 kts | 274° |
| 2026-05-07 18:35 | 60.14950 | 10.37274 | 14867 ft | 341 kts | 274° |
| 2026-05-07 18:36 | 60.15105 | 10.32527 | 15600 ft | 344 kts | 273° |
| 2026-05-07 18:36 | 60.15258 | 10.27757 | 16381 ft | 345 kts | 273° |
| 2026-05-07 18:36 | 60.15410 | 10.22953 | 17103 ft | 348 kts | 273° |
| 2026-05-07 18:36 | 60.15560 | 10.18138 | 17861 ft | 349 kts | 273° |
| 2026-05-07 18:37 | 60.15710 | 10.13269 | 18505 ft | 353 kts | 273° |
| 2026-05-07 18:37 | 60.15860 | 10.08388 | 19250 ft | 354 kts | 274° |
| 2026-05-07 18:37 | 60.16009 | 10.03471 | 19945 ft | 356 kts | 274° |
| 2026-05-07 18:37 | 60.16157 | 9.98516 | 20566 ft | 359 kts | 274° |
| 2026-05-07 18:38 | 60.16304 | 9.93520 | 21195 ft | 362 kts | 274° |
| 2026-05-07 18:38 | 60.16449 | 9.88499 | 21810 ft | 364 kts | 274° |
| 2026-05-07 18:38 | 60.16592 | 9.83437 | 22412 ft | 366 kts | 274° |
| 2026-05-07 18:38 | 60.16735 | 9.78359 | 23042 ft | 367 kts | 274° |
| 2026-05-07 18:39 | 60.16878 | 9.73258 | 23585 ft | 370 kts | 274° |
| 2026-05-07 18:39 | 60.17021 | 9.68108 | 24128 ft | 372 kts | 274° |
| 2026-05-07 18:39 | 60.17162 | 9.62935 | 24642 ft | 374 kts | 274° |
| 2026-05-07 18:39 | 60.17302 | 9.57732 | 25190 ft | 376 kts | 274° |
| 2026-05-07 18:40 | 60.17441 | 9.52506 | 25700 ft | 378 kts | 274° |
| 2026-05-07 18:40 | 60.17577 | 9.47247 | 26192 ft | 380 kts | 274° |
| 2026-05-07 18:40 | 60.17713 | 9.41963 | 26667 ft | 382 kts | 274° |
| 2026-05-07 18:40 | 60.17848 | 9.36656 | 27180 ft | 382 kts | 274° |
| 2026-05-07 18:41 | 60.17980 | 9.31322 | 27636 ft | 385 kts | 273° |
| 2026-05-07 18:41 | 60.18110 | 9.25944 | 28084 ft | 386 kts | 273° |
| 2026-05-07 18:41 | 60.18239 | 9.20528 | 28441 ft | 390 kts | 273° |
| 2026-05-07 18:41 | 60.18368 | 9.15106 | 28924 ft | 391 kts | 273° |
| 2026-05-07 18:42 | 60.18494 | 9.09693 | 29512 ft | 389 kts | 273° |
| 2026-05-07 18:42 | 60.18615 | 9.04322 | 29976 ft | 387 kts | 273° |
| 2026-05-07 18:42 | 60.18734 | 8.98915 | 30042 ft | 389 kts | 273° |
| 2026-05-07 18:43 | 60.18966 | 8.88197 | 30062 ft | 382 kts | 273° |
| 2026-05-07 18:43 | 60.19191 | 8.77546 | 30057 ft | 382 kts | 273° |
| 2026-05-07 18:44 | 60.19411 | 8.66803 | 30052 ft | 384 kts | 273° |
| 2026-05-07 18:44 | 60.19620 | 8.56128 | 30039 ft | 383 kts | 273° |
| 2026-05-07 18:45 | 60.19821 | 8.45442 | 30025 ft | 383 kts | 273° |
| 2026-05-07 18:45 | 60.20016 | 8.34729 | 30018 ft | 384 kts | 272° |
| 2026-05-07 18:46 | 60.20211 | 8.24538 | 30014 ft | 384 kts | 273° |
| 2026-05-07 18:46 | 60.20532 | 8.13852 | 30011 ft | 384 kts | 274° |
| 2026-05-07 18:47 | 60.20871 | 8.03138 | 29738 ft | 382 kts | 274° |
| 2026-05-07 18:47 | 60.21031 | 7.97867 | 29480 ft | 377 kts | 274° |
| 2026-05-07 18:47 | 60.21186 | 7.92626 | 29217 ft | 376 kts | 274° |
| 2026-05-07 18:47 | 60.21337 | 7.87404 | 28957 ft | 376 kts | 274° |
| 2026-05-07 18:48 | 60.21484 | 7.82177 | 28695 ft | 375 kts | 273° |
| 2026-05-07 18:48 | 60.21628 | 7.76972 | 28434 ft | 374 kts | 273° |
| 2026-05-07 18:48 | 60.21769 | 7.71781 | 28171 ft | 372 kts | 274° |
| 2026-05-07 18:48 | 60.21907 | 7.66613 | 27906 ft | 370 kts | 273° |
| 2026-05-07 18:49 | 60.22040 | 7.61483 | 27585 ft | 367 kts | 274° |
| 2026-05-07 18:49 | 60.22166 | 7.56404 | 27117 ft | 362 kts | 273° |
| 2026-05-07 18:49 | 60.22291 | 7.51402 | 26585 ft | 359 kts | 273° |
| 2026-05-07 18:49 | 60.22416 | 7.46427 | 26030 ft | 356 kts | 273° |
| 2026-05-07 18:50 | 60.22538 | 7.41490 | 25476 ft | 354 kts | 274° |
| 2026-05-07 18:50 | 60.22660 | 7.36586 | 24923 ft | 352 kts | 274° |
| 2026-05-07 18:50 | 60.22779 | 7.31711 | 24369 ft | 350 kts | 273° |
| 2026-05-07 18:50 | 60.22892 | 7.27021 | 23833 ft | 348 kts | 273° |
| 2026-05-07 18:51 | 60.23004 | 7.22308 | 23306 ft | 347 kts | 273° |
| 2026-05-07 18:51 | 60.23112 | 7.17725 | 22780 ft | 346 kts | 272° |
| 2026-05-07 18:51 | 60.23223 | 7.12917 | 22232 ft | 344 kts | 272° |
| 2026-05-07 18:51 | 60.23331 | 7.08137 | 21688 ft | 343 kts | 272° |
| 2026-05-07 18:52 | 60.23433 | 7.03527 | 21153 ft | 341 kts | 272° |
| 2026-05-07 18:52 | 60.23535 | 6.98786 | 20612 ft | 340 kts | 272° |
| 2026-05-07 18:52 | 60.23633 | 6.94068 | 20074 ft | 338 kts | 272° |
| 2026-05-07 18:52 | 60.23577 | 6.89343 | 19350 ft | 342 kts | 264° |
| 2026-05-07 18:53 | 60.23204 | 6.84647 | 18761 ft | 341 kts | 259° |
| 2026-05-07 18:53 | 60.22699 | 6.80022 | 18205 ft | 340 kts | 257° |
| 2026-05-07 18:53 | 60.22184 | 6.75430 | 17695 ft | 336 kts | 258° |
| 2026-05-07 18:53 | 60.21703 | 6.70861 | 17151 ft | 335 kts | 258° |
| 2026-05-07 18:54 | 60.21257 | 6.66303 | 16636 ft | 333 kts | 259° |
| 2026-05-07 18:54 | 60.20837 | 6.61764 | 16105 ft | 331 kts | 259° |
| 2026-05-07 18:54 | 60.20429 | 6.57251 | 15609 ft | 328 kts | 259° |
| 2026-05-07 18:54 | 60.20027 | 6.52771 | 15102 ft | 326 kts | 259° |
| 2026-05-07 18:55 | 60.19626 | 6.48311 | 14560 ft | 325 kts | 259° |
| 2026-05-07 18:55 | 60.19227 | 6.43875 | 14064 ft | 323 kts | 259° |
| 2026-05-07 18:55 | 60.18833 | 6.39465 | 13513 ft | 323 kts | 259° |
| 2026-05-07 18:55 | 60.18434 | 6.35063 | 13043 ft | 319 kts | 259° |
| 2026-05-07 18:56 | 60.18039 | 6.30744 | 12790 ft | 310 kts | 258° |
| 2026-05-07 18:56 | 60.17663 | 6.26589 | 12672 ft | 297 kts | 258° |
| 2026-05-07 18:56 | 60.17300 | 6.22603 | 12544 ft | 286 kts | 258° |
| 2026-05-07 18:56 | 60.16947 | 6.18766 | 12442 ft | 274 kts | 258° |
| 2026-05-07 18:57 | 60.16606 | 6.15074 | 12321 ft | 265 kts | 258° |
| 2026-05-07 18:57 | 60.16273 | 6.11468 | 11973 ft | 264 kts | 257° |
| 2026-05-07 18:57 | 60.15936 | 6.07854 | 11618 ft | 263 kts | 257° |
| 2026-05-07 18:57 | 60.15596 | 6.04254 | 11221 ft | 264 kts | 257° |
| 2026-05-07 18:58 | 60.15252 | 6.00663 | 10872 ft | 263 kts | 257° |
| 2026-05-07 18:58 | 60.14912 | 5.97079 | 10519 ft | 263 kts | 257° |
| 2026-05-07 18:58 | 60.14572 | 5.93504 | 10168 ft | 262 kts | 257° |
| 2026-05-07 18:58 | 60.14233 | 5.89936 | 9822 ft | 261 kts | 257° |
| 2026-05-07 18:59 | 60.13895 | 5.86369 | 9445 ft | 261 kts | 257° |
| 2026-05-07 18:59 | 60.13561 | 5.82805 | 9058 ft | 262 kts | 257° |
| 2026-05-07 18:59 | 60.13221 | 5.79212 | 8550 ft | 265 kts | 256° |
| 2026-05-07 18:59 | 60.12873 | 5.75578 | 8039 ft | 268 kts | 256° |
| 2026-05-07 19:00 | 60.12520 | 5.71906 | 7531 ft | 271 kts | 256° |
| 2026-05-07 19:00 | 60.12162 | 5.68217 | 7106 ft | 270 kts | 256° |
| 2026-05-07 19:00 | 60.11810 | 5.64559 | 6683 ft | 266 kts | 256° |
| 2026-05-07 19:00 | 60.11462 | 5.60956 | 6259 ft | 262 kts | 256° |
| 2026-05-07 19:01 | 60.11119 | 5.57407 | 5853 ft | 258 kts | 256° |
| 2026-05-07 19:01 | 60.10775 | 5.53909 | 5445 ft | 256 kts | 256° |
| 2026-05-07 19:01 | 60.10428 | 5.50429 | 5032 ft | 255 kts | 257° |
| 2026-05-07 19:01 | 60.10082 | 5.46957 | 4625 ft | 255 kts | 257° |
| 2026-05-07 19:02 | 60.09747 | 5.43467 | 4215 ft | 257 kts | 259° |
| 2026-05-07 19:02 | 60.09679 | 5.39910 | 3977 ft | 253 kts | 275° |
| 2026-05-07 19:02 | 60.09975 | 5.36521 | 3884 ft | 243 kts | 281° |
| 2026-05-07 19:02 | 60.10336 | 5.33267 | 3741 ft | 237 kts | 281° |
| 2026-05-07 19:03 | 60.10935 | 5.30250 | 3610 ft | 231 kts | 303° |
| 2026-05-07 19:03 | 60.12100 | 5.28180 | 3477 ft | 222 kts | 335° |
| 2026-05-07 19:03 | 60.13548 | 5.27310 | 3341 ft | 216 kts | 349° |
| 2026-05-07 19:03 | 60.15011 | 5.26697 | 3209 ft | 216 kts | 349° |
| 2026-05-07 19:04 | 60.16452 | 5.26143 | 3061 ft | 207 kts | 351° |
| 2026-05-07 19:04 | 60.17823 | 5.25662 | 2986 ft | 193 kts | 351° |
| 2026-05-07 19:04 | 60.19092 | 5.25223 | 2790 ft | 180 kts | 351° |
| 2026-05-07 19:04 | 60.20327 | 5.24806 | 2231 ft | 185 kts | 351° |
| 2026-05-07 19:05 | 60.21607 | 5.24376 | 1598 ft | 190 kts | 351° |
| 2026-05-07 19:05 | 60.22884 | 5.23943 | 1229 ft | 178 kts | 351° |
| 2026-05-07 19:05 | 60.24050 | 5.23553 | 1048 ft | 167 kts | 350° |
| 2026-05-07 19:05 | 60.25163 | 5.23178 | 820 ft | 159 kts | 350° |
| 2026-05-07 19:06 | 60.26228 | 5.22814 | 611 ft | 153 kts | 349° |
| 2026-05-07 19:06 | 60.28305 | 5.22158 | 173 ft | 149 kts | 349° |
| 2026-05-07 19:06 | 60.29209 | 5.21853 | 158 ft | 98 kts | 351° |
| 2026-05-07 19:07 | 60.29606 | 5.21725 | 152 ft | 19 kts | 349° |
| 2026-05-07 19:07 | 60.29701 | 5.21777 | 152 ft | 13 kts | 60° |
| 2026-05-07 19:07 | 60.29717 | 5.21926 | 151 ft | 9 kts | 90° |
| 2026-05-07 19:07 | 60.29678 | 5.22019 | 152 ft | 9 kts | 160° |
| 2026-05-07 19:08 | 60.29606 | 5.22048 | 153 ft | 11 kts | 171° |
| 2026-05-07 19:08 | 60.29519 | 5.22073 | 154 ft | 13 kts | 169° |
| 2026-05-07 19:08 | 60.29419 | 5.22108 | 156 ft | 15 kts | 170° |
| 2026-05-07 19:08 | 60.29304 | 5.22149 | 157 ft | 17 kts | 170° |
| 2026-05-07 19:09 | 60.29177 | 5.22192 | 160 ft | 18 kts | 171° |
| 2026-05-07 19:09 | 60.29061 | 5.22230 | 161 ft | 14 kts | 169° |
| 2026-05-07 19:09 | 60.28969 | 5.22261 | 162 ft | 12 kts | 170° |
| 2026-05-07 19:09 | 60.28889 | 5.22289 | 162 ft | 11 kts | 170° |
| 2026-05-07 19:10 | 60.28815 | 5.22313 | 162 ft | 10 kts | 171° |
| 2026-05-07 19:10 | 60.28742 | 5.22338 | 162 ft | 12 kts | 170° |
| 2026-05-07 19:10 | 60.28687 | 5.22436 | 162 ft | 10 kts | 83° |
| 2026-05-07 19:10 | 60.28708 | 5.22562 | 162 ft | 8 kts | 74° |
| 2026-05-07 19:11 | 60.28718 | 5.22667 | 163 ft | 6 kts | 80° |
| 2026-05-07 19:11 | 60.28727 | 5.22773 | 164 ft | 8 kts | 80° |
| 2026-05-07 19:11 | 60.28735 | 5.22877 | 165 ft | 4 kts | 80° |
| 2026-05-07 19:11 | 60.28737 | 5.22896 | 165 ft | 0 kts | 80° |